sensor_id;sensor_type;location;lat;lon;timestamp;P1;durP1;ratioP1;P2;durP2;ratioP2
37383;SDS011;23258;49.718;11.082;2023-08-30T00:00:39;1.95;;;1.77;;
37383;SDS011;23258;49.718;11.082;2023-08-30T00:03:09;2.00;;;1.90;;
37383;SDS011;23258;49.718;11.082;2023-08-30T00:05:39;1.73;;;1.63;;
37383;SDS011;23258;49.718;11.082;2023-08-30T00:08:09;1.98;;;1.88;;
37383;SDS011;23258;49.718;11.082;2023-08-30T00:10:42;3.67;;;1.63;;
37383;SDS011;23258;49.718;11.082;2023-08-30T00:13:12;1.95;;;1.85;;
37383;SDS011;23258;49.718;11.082;2023-08-30T00:15:42;2.85;;;1.63;;
37383;SDS011;23258;49.718;11.082;2023-08-30T00:18:11;1.73;;;1.55;;
37383;SDS011;23258;49.718;11.082;2023-08-30T00:20:41;3.20;;;1.85;;
37383;SDS011;23258;49.718;11.082;2023-08-30T00:23:11;1.65;;;1.55;;
37383;SDS011;23258;49.718;11.082;2023-08-30T00:25:43;1.63;;;1.52;;
37383;SDS011;23258;49.718;11.082;2023-08-30T00:28:13;1.85;;;1.75;;
37383;SDS011;23258;49.718;11.082;2023-08-30T00:30:43;1.67;;;1.58;;
37383;SDS011;23258;49.718;11.082;2023-08-30T00:33:13;1.73;;;1.63;;
37383;SDS011;23258;49.718;11.082;2023-08-30T00:35:43;2.08;;;1.98;;
37383;SDS011;23258;49.718;11.082;2023-08-30T00:38:12;1.67;;;1.58;;
37383;SDS011;23258;49.718;11.082;2023-08-30T00:40:45;2.17;;;2.08;;
37383;SDS011;23258;49.718;11.082;2023-08-30T00:43:14;1.52;;;1.52;;
37383;SDS011;23258;49.718;11.082;2023-08-30T00:45:44;1.90;;;1.80;;
37383;SDS011;23258;49.718;11.082;2023-08-30T00:48:14;2.20;;;2.00;;
37383;SDS011;23258;49.718;11.082;2023-08-30T00:50:45;1.67;;;1.55;;
37383;SDS011;23258;49.718;11.082;2023-08-30T00:53:16;2.20;;;2.10;;
37383;SDS011;23258;49.718;11.082;2023-08-30T00:55:48;2.25;;;2.08;;
37383;SDS011;23258;49.718;11.082;2023-08-30T00:58:18;1.73;;;1.65;;
37383;SDS011;23258;49.718;11.082;2023-08-30T01:00:48;2.33;;;2.13;;
37383;SDS011;23258;49.718;11.082;2023-08-30T01:03:19;2.30;;;2.10;;
37383;SDS011;23258;49.718;11.082;2023-08-30T01:05:49;2.33;;;2.13;;
37383;SDS011;23258;49.718;11.082;2023-08-30T01:08:19;2.10;;;2.00;;
37383;SDS011;23258;49.718;11.082;2023-08-30T01:10:55;2.00;;;1.90;;
37383;SDS011;23258;49.718;11.082;2023-08-30T01:13:28;2.92;;;2.25;;
37383;SDS011;23258;49.718;11.082;2023-08-30T01:15:59;2.10;;;2.00;;
37383;SDS011;23258;49.718;11.082;2023-08-30T01:18:31;2.08;;;1.98;;
37383;SDS011;23258;49.718;11.082;2023-08-30T01:21:02;2.53;;;2.38;;
37383;SDS011;23258;49.718;11.082;2023-08-30T01:23:36;4.43;;;2.00;;
37383;SDS011;23258;49.718;11.082;2023-08-30T01:26:13;1.98;;;1.80;;
37383;SDS011;23258;49.718;11.082;2023-08-30T01:28:46;3.78;;;2.03;;
37383;SDS011;23258;49.718;11.082;2023-08-30T01:31:16;2.40;;;2.20;;
37383;SDS011;23258;49.718;11.082;2023-08-30T01:33:47;2.50;;;2.30;;
37383;SDS011;23258;49.718;11.082;2023-08-30T01:36:18;4.40;;;2.38;;
37383;SDS011;23258;49.718;11.082;2023-08-30T01:38:48;2.75;;;2.55;;
37383;SDS011;23258;49.718;11.082;2023-08-30T01:41:18;2.80;;;2.60;;
37383;SDS011;23258;49.718;11.082;2023-08-30T01:43:52;3.90;;;2.83;;
37383;SDS011;23258;49.718;11.082;2023-08-30T01:46:23;3.95;;;3.03;;
37383;SDS011;23258;49.718;11.082;2023-08-30T01:48:53;3.17;;;2.97;;
37383;SDS011;23258;49.718;11.082;2023-08-30T01:51:26;2.72;;;2.53;;
37383;SDS011;23258;49.718;11.082;2023-08-30T01:53:55;4.00;;;2.60;;
37383;SDS011;23258;49.718;11.082;2023-08-30T01:56:26;2.95;;;2.75;;
37383;SDS011;23258;49.718;11.082;2023-08-30T01:58:59;3.67;;;2.95;;
37383;SDS011;23258;49.718;11.082;2023-08-30T02:01:28;2.45;;;2.22;;
37383;SDS011;23258;49.718;11.082;2023-08-30T02:03:59;2.50;;;2.40;;
37383;SDS011;23258;49.718;11.082;2023-08-30T02:06:30;8.10;;;2.78;;
37383;SDS011;23258;49.718;11.082;2023-08-30T02:09:03;2.58;;;2.38;;
37383;SDS011;23258;49.718;11.082;2023-08-30T02:11:34;4.18;;;1.80;;
37383;SDS011;23258;49.718;11.082;2023-08-30T02:14:07;2.67;;;2.47;;
37383;SDS011;23258;49.718;11.082;2023-08-30T02:16:39;1.92;;;1.83;;
37383;SDS011;23258;49.718;11.082;2023-08-30T02:19:10;2.30;;;2.10;;
37383;SDS011;23258;49.718;11.082;2023-08-30T02:21:43;2.42;;;2.22;;
37383;SDS011;23258;49.718;11.082;2023-08-30T02:24:13;2.58;;;2.38;;
37383;SDS011;23258;49.718;11.082;2023-08-30T02:26:43;2.22;;;2.13;;
37383;SDS011;23258;49.718;11.082;2023-08-30T02:29:15;5.55;;;2.42;;
37383;SDS011;23258;49.718;11.082;2023-08-30T02:31:45;2.42;;;2.30;;
37383;SDS011;23258;49.718;11.082;2023-08-30T02:34:14;2.45;;;2.25;;
37383;SDS011;23258;49.718;11.082;2023-08-30T02:36:44;2.45;;;2.25;;
37383;SDS011;23258;49.718;11.082;2023-08-30T02:39:14;2.47;;;2.38;;
37383;SDS011;23258;49.718;11.082;2023-08-30T02:41:44;2.30;;;2.20;;
37383;SDS011;23258;49.718;11.082;2023-08-30T02:44:17;2.50;;;2.30;;
37383;SDS011;23258;49.718;11.082;2023-08-30T02:46:47;2.38;;;2.28;;
37383;SDS011;23258;49.718;11.082;2023-08-30T02:49:16;4.80;;;2.33;;
37383;SDS011;23258;49.718;11.082;2023-08-30T02:51:46;2.17;;;2.08;;
37383;SDS011;23258;49.718;11.082;2023-08-30T02:54:15;2.78;;;2.55;;
37383;SDS011;23258;49.718;11.082;2023-08-30T02:56:45;2.10;;;2.00;;
37383;SDS011;23258;49.718;11.082;2023-08-30T02:59:17;2.28;;;2.17;;
37383;SDS011;23258;49.718;11.082;2023-08-30T03:01:47;2.40;;;2.30;;
37383;SDS011;23258;49.718;11.082;2023-08-30T03:04:18;3.83;;;2.45;;
37383;SDS011;23258;49.718;11.082;2023-08-30T03:06:47;2.08;;;1.98;;
37383;SDS011;23258;49.718;11.082;2023-08-30T03:09:17;4.05;;;2.75;;
37383;SDS011;23258;49.718;11.082;2023-08-30T03:11:47;2.78;;;2.58;;
37383;SDS011;23258;49.718;11.082;2023-08-30T03:14:19;2.47;;;2.00;;
37383;SDS011;23258;49.718;11.082;2023-08-30T03:16:49;2.20;;;2.10;;
37383;SDS011;23258;49.718;11.082;2023-08-30T03:19:19;2.38;;;2.17;;
37383;SDS011;23258;49.718;11.082;2023-08-30T03:21:49;2.70;;;2.50;;
37383;SDS011;23258;49.718;11.082;2023-08-30T03:24:19;2.25;;;1.90;;
37383;SDS011;23258;49.718;11.082;2023-08-30T03:26:48;2.65;;;1.83;;
37383;SDS011;23258;49.718;11.082;2023-08-30T03:29:21;2.58;;;2.38;;
37383;SDS011;23258;49.718;11.082;2023-08-30T03:31:51;2.38;;;2.20;;
37383;SDS011;23258;49.718;11.082;2023-08-30T03:34:20;1.92;;;1.83;;
37383;SDS011;23258;49.718;11.082;2023-08-30T03:36:50;2.65;;;2.47;;
37383;SDS011;23258;49.718;11.082;2023-08-30T03:39:21;2.80;;;2.17;;
37383;SDS011;23258;49.718;11.082;2023-08-30T03:41:52;2.45;;;2.33;;
37383;SDS011;23258;49.718;11.082;2023-08-30T03:44:25;2.40;;;2.30;;
37383;SDS011;23258;49.718;11.082;2023-08-30T03:46:55;2.72;;;2.03;;
37383;SDS011;23258;49.718;11.082;2023-08-30T03:49:25;1.98;;;1.88;;
37383;SDS011;23258;49.718;11.082;2023-08-30T03:51:54;2.00;;;1.90;;
37383;SDS011;23258;49.718;11.082;2023-08-30T03:54:24;4.93;;;2.10;;
37383;SDS011;23258;49.718;11.082;2023-08-30T03:56:54;2.28;;;2.08;;
37383;SDS011;23258;49.718;11.082;2023-08-30T03:59:26;2.65;;;2.17;;
37383;SDS011;23258;49.718;11.082;2023-08-30T04:01:56;2.50;;;1.92;;
37383;SDS011;23258;49.718;11.082;2023-08-30T04:04:25;2.30;;;2.20;;
37383;SDS011;23258;49.718;11.082;2023-08-30T04:06:55;5.13;;;2.40;;
37383;SDS011;23258;49.718;11.082;2023-08-30T04:09:26;2.50;;;2.30;;
37383;SDS011;23258;49.718;11.082;2023-08-30T04:11:55;4.88;;;2.65;;
37383;SDS011;23258;49.718;11.082;2023-08-30T04:14:29;2.55;;;2.35;;
37383;SDS011;23258;49.718;11.082;2023-08-30T04:16:59;2.47;;;2.33;;
37383;SDS011;23258;49.718;11.082;2023-08-30T04:19:29;2.28;;;2.08;;
37383;SDS011;23258;49.718;11.082;2023-08-30T04:21:58;3.85;;;2.85;;
37383;SDS011;23258;49.718;11.082;2023-08-30T04:24:29;2.75;;;2.58;;
37383;SDS011;23258;49.718;11.082;2023-08-30T04:26:58;2.85;;;2.65;;
37383;SDS011;23258;49.718;11.082;2023-08-30T04:29:31;2.50;;;2.38;;
37383;SDS011;23258;49.718;11.082;2023-08-30T04:32:01;5.65;;;2.53;;
37383;SDS011;23258;49.718;11.082;2023-08-30T04:34:30;4.55;;;2.55;;
37383;SDS011;23258;49.718;11.082;2023-08-30T04:37:01;2.97;;;2.78;;
37383;SDS011;23258;49.718;11.082;2023-08-30T04:39:31;2.75;;;2.55;;
37383;SDS011;23258;49.718;11.082;2023-08-30T04:42:01;2.40;;;2.20;;
37383;SDS011;23258;49.718;11.082;2023-08-30T04:44:34;2.50;;;2.40;;
37383;SDS011;23258;49.718;11.082;2023-08-30T04:47:06;2.63;;;2.35;;
37383;SDS011;23258;49.718;11.082;2023-08-30T04:49:36;2.58;;;2.38;;
37383;SDS011;23258;49.718;11.082;2023-08-30T04:52:06;4.90;;;3.08;;
37383;SDS011;23258;49.718;11.082;2023-08-30T04:54:36;3.15;;;2.60;;
37383;SDS011;23258;49.718;11.082;2023-08-30T04:57:06;3.60;;;3.30;;
37383;SDS011;23258;49.718;11.082;2023-08-30T04:59:39;3.75;;;3.45;;
37383;SDS011;23258;49.718;11.082;2023-08-30T05:02:10;3.25;;;3.05;;
37383;SDS011;23258;49.718;11.082;2023-08-30T05:04:49;5.38;;;2.90;;
37383;SDS011;23258;49.718;11.082;2023-08-30T05:09:55;4.65;;;3.60;;
37383;SDS011;23258;49.718;11.082;2023-08-30T05:12:25;3.63;;;3.33;;
37383;SDS011;23258;49.718;11.082;2023-08-30T05:14:57;5.07;;;3.78;;
37383;SDS011;23258;49.718;11.082;2023-08-30T05:17:27;6.57;;;4.22;;
37383;SDS011;23258;49.718;11.082;2023-08-30T05:19:58;4.85;;;3.47;;
37383;SDS011;23258;49.718;11.082;2023-08-30T05:22:27;4.50;;;3.03;;
37383;SDS011;23258;49.718;11.082;2023-08-30T05:24:57;4.05;;;3.65;;
37383;SDS011;23258;49.718;11.082;2023-08-30T05:27:27;3.38;;;3.05;;
37383;SDS011;23258;49.718;11.082;2023-08-30T05:29:59;4.22;;;3.22;;
37383;SDS011;23258;49.718;11.082;2023-08-30T05:32:32;3.60;;;3.40;;
37383;SDS011;23258;49.718;11.082;2023-08-30T05:35:08;4.97;;;3.53;;
37383;SDS011;23258;49.718;11.082;2023-08-30T05:38:07;4.78;;;3.90;;
37383;SDS011;23258;49.718;11.082;2023-08-30T05:40:48;5.10;;;3.50;;
37383;SDS011;23258;49.718;11.082;2023-08-30T05:43:18;4.35;;;3.95;;
37383;SDS011;23258;49.718;11.082;2023-08-30T05:45:51;3.83;;;3.53;;
37383;SDS011;23258;49.718;11.082;2023-08-30T05:48:21;3.63;;;3.33;;
37383;SDS011;23258;49.718;11.082;2023-08-30T05:50:51;3.80;;;3.47;;
37383;SDS011;23258;49.718;11.082;2023-08-30T05:53:22;3.83;;;3.60;;
37383;SDS011;23258;49.718;11.082;2023-08-30T05:55:53;4.18;;;3.80;;
37383;SDS011;23258;49.718;11.082;2023-08-30T05:58:22;4.03;;;3.58;;
37383;SDS011;23258;49.718;11.082;2023-08-30T06:00:55;4.90;;;4.50;;
37383;SDS011;23258;49.718;11.082;2023-08-30T06:03:28;4.03;;;3.72;;
37383;SDS011;23258;49.718;11.082;2023-08-30T06:05:58;4.60;;;4.20;;
37383;SDS011;23258;49.718;11.082;2023-08-30T06:08:28;6.18;;;3.97;;
37383;SDS011;23258;49.718;11.082;2023-08-30T06:10:58;4.25;;;3.83;;
37383;SDS011;23258;49.718;11.082;2023-08-30T06:13:28;5.30;;;4.38;;
37383;SDS011;23258;49.718;11.082;2023-08-30T06:16:00;5.05;;;4.60;;
37383;SDS011;23258;49.718;11.082;2023-08-30T06:18:30;5.35;;;4.85;;
37383;SDS011;23258;49.718;11.082;2023-08-30T06:21:00;5.82;;;5.22;;
37383;SDS011;23258;49.718;11.082;2023-08-30T06:23:32;5.50;;;5.00;;
37383;SDS011;23258;49.718;11.082;2023-08-30T06:26:02;6.07;;;5.50;;
37383;SDS011;23258;49.718;11.082;2023-08-30T06:28:32;7.07;;;6.07;;
37383;SDS011;23258;49.718;11.082;2023-08-30T06:31:07;6.60;;;5.93;;
37383;SDS011;23258;49.718;11.082;2023-08-30T06:33:36;6.88;;;6.18;;
37383;SDS011;23258;49.718;11.082;2023-08-30T06:36:06;7.20;;;6.50;;
37383;SDS011;23258;49.718;11.082;2023-08-30T06:38:38;6.93;;;6.32;;
37383;SDS011;23258;49.718;11.082;2023-08-30T06:41:07;7.93;;;6.65;;
37383;SDS011;23258;49.718;11.082;2023-08-30T06:43:37;7.15;;;6.22;;
37383;SDS011;23258;49.718;11.082;2023-08-30T06:46:11;7.47;;;6.78;;
37383;SDS011;23258;49.718;11.082;2023-08-30T06:48:44;8.20;;;7.40;;
37383;SDS011;23258;49.718;11.082;2023-08-30T06:51:14;13.43;;;8.63;;
37383;SDS011;23258;49.718;11.082;2023-08-30T06:53:44;8.98;;;8.05;;
37383;SDS011;23258;49.718;11.082;2023-08-30T06:56:13;8.75;;;7.78;;
37383;SDS011;23258;49.718;11.082;2023-08-30T06:58:43;9.60;;;8.50;;
37383;SDS011;23258;49.718;11.082;2023-08-30T07:01:15;9.32;;;8.18;;
37383;SDS011;23258;49.718;11.082;2023-08-30T07:03:46;11.18;;;9.35;;
37383;SDS011;23258;49.718;11.082;2023-08-30T07:06:16;8.73;;;7.93;;
37383;SDS011;23258;49.718;11.082;2023-08-30T07:08:46;9.77;;;8.77;;
37383;SDS011;23258;49.718;11.082;2023-08-30T07:11:16;9.88;;;8.85;;
37383;SDS011;23258;49.718;11.082;2023-08-30T07:13:59;9.23;;;8.05;;
37383;SDS011;23258;49.718;11.082;2023-08-30T07:16:31;9.05;;;8.15;;
37383;SDS011;23258;49.718;11.082;2023-08-30T07:19:01;9.55;;;8.35;;
37383;SDS011;23258;49.718;11.082;2023-08-30T07:21:31;10.93;;;8.85;;
37383;SDS011;23258;49.718;11.082;2023-08-30T07:24:05;10.07;;;9.07;;
37383;SDS011;23258;49.718;11.082;2023-08-30T07:26:35;11.52;;;8.95;;
37383;SDS011;23258;49.718;11.082;2023-08-30T07:29:05;10.23;;;8.80;;
37383;SDS011;23258;49.718;11.082;2023-08-30T07:31:37;10.50;;;9.30;;
37383;SDS011;23258;49.718;11.082;2023-08-30T07:34:08;9.90;;;8.88;;
37383;SDS011;23258;49.718;11.082;2023-08-30T07:36:38;10.65;;;9.55;;
37383;SDS011;23258;49.718;11.082;2023-08-30T07:39:14;8.98;;;8.07;;
37383;SDS011;23258;49.718;11.082;2023-08-30T07:41:43;10.05;;;9.05;;
37383;SDS011;23258;49.718;11.082;2023-08-30T07:44:13;10.60;;;9.45;;
37383;SDS011;23258;49.718;11.082;2023-08-30T07:46:45;9.13;;;8.23;;
37383;SDS011;23258;49.718;11.082;2023-08-30T07:49:16;9.88;;;8.82;;
37383;SDS011;23258;49.718;11.082;2023-08-30T07:51:46;10.82;;;9.40;;
37383;SDS011;23258;49.718;11.082;2023-08-30T07:54:16;9.98;;;9.00;;
37383;SDS011;23258;49.718;11.082;2023-08-30T07:56:45;10.85;;;8.88;;
37383;SDS011;23258;49.718;11.082;2023-08-30T07:59:15;10.07;;;9.07;;
37383;SDS011;23258;49.718;11.082;2023-08-30T08:01:48;10.90;;;9.82;;
37383;SDS011;23258;49.718;11.082;2023-08-30T08:04:18;9.52;;;8.68;;
37383;SDS011;23258;49.718;11.082;2023-08-30T08:06:48;11.20;;;10.00;;
37383;SDS011;23258;49.718;11.082;2023-08-30T08:09:22;9.77;;;8.93;;
37383;SDS011;23258;49.718;11.082;2023-08-30T08:11:52;11.52;;;10.43;;
37383;SDS011;23258;49.718;11.082;2023-08-30T08:14:23;9.75;;;8.63;;
37383;SDS011;23258;49.718;11.082;2023-08-30T08:16:55;10.02;;;8.52;;
37383;SDS011;23258;49.718;11.082;2023-08-30T08:19:25;10.48;;;8.88;;
37383;SDS011;23258;49.718;11.082;2023-08-30T08:21:55;9.20;;;8.38;;
37383;SDS011;23258;49.718;11.082;2023-08-30T08:24:25;9.75;;;8.85;;
37383;SDS011;23258;49.718;11.082;2023-08-30T08:26:55;9.63;;;8.80;;
37383;SDS011;23258;49.718;11.082;2023-08-30T08:29:26;8.48;;;7.70;;
37383;SDS011;23258;49.718;11.082;2023-08-30T08:31:58;8.02;;;7.22;;
37383;SDS011;23258;49.718;11.082;2023-08-30T08:34:28;8.75;;;7.03;;
37383;SDS011;23258;49.718;11.082;2023-08-30T08:36:57;7.10;;;6.50;;
37383;SDS011;23258;49.718;11.082;2023-08-30T08:39:27;6.97;;;6.45;;
37383;SDS011;23258;49.718;11.082;2023-08-30T08:41:57;7.28;;;6.57;;
37383;SDS011;23258;49.718;11.082;2023-08-30T08:44:30;7.15;;;6.55;;
37383;SDS011;23258;49.718;11.082;2023-08-30T08:47:03;7.13;;;6.47;;
37383;SDS011;23258;49.718;11.082;2023-08-30T08:49:33;7.53;;;6.80;;
37383;SDS011;23258;49.718;11.082;2023-08-30T08:52:04;7.85;;;5.82;;
37383;SDS011;23258;49.718;11.082;2023-08-30T08:54:49;7.00;;;6.38;;
37383;SDS011;23258;49.718;11.082;2023-08-30T08:57:19;5.60;;;5.13;;
37383;SDS011;23258;49.718;11.082;2023-08-30T08:59:49;7.45;;;6.22;;
37383;SDS011;23258;49.718;11.082;2023-08-30T09:02:21;5.90;;;5.40;;
37383;SDS011;23258;49.718;11.082;2023-08-30T09:04:51;6.00;;;5.40;;
37383;SDS011;23258;49.718;11.082;2023-08-30T09:07:21;6.63;;;5.18;;
37383;SDS011;23258;49.718;11.082;2023-08-30T09:09:54;4.63;;;4.15;;
37383;SDS011;23258;49.718;11.082;2023-08-30T09:12:23;5.00;;;4.60;;
37383;SDS011;23258;49.718;11.082;2023-08-30T09:14:53;5.97;;;5.03;;
37383;SDS011;23258;49.718;11.082;2023-08-30T09:17:34;6.63;;;5.20;;
37383;SDS011;23258;49.718;11.082;2023-08-30T09:20:07;5.10;;;4.60;;
37383;SDS011;23258;49.718;11.082;2023-08-30T09:22:41;4.95;;;4.55;;
37383;SDS011;23258;49.718;11.082;2023-08-30T09:25:21;4.30;;;4.00;;
37383;SDS011;23258;49.718;11.082;2023-08-30T09:27:56;4.43;;;4.13;;
37383;SDS011;23258;49.718;11.082;2023-08-30T09:30:28;4.30;;;3.90;;
37383;SDS011;23258;49.718;11.082;2023-08-30T09:33:05;4.63;;;4.22;;
37383;SDS011;23258;49.718;11.082;2023-08-30T09:35:43;4.78;;;4.45;;
37383;SDS011;23258;49.718;11.082;2023-08-30T09:38:16;4.50;;;4.10;;
37383;SDS011;23258;49.718;11.082;2023-08-30T09:40:46;3.50;;;3.22;;
37383;SDS011;23258;49.718;11.082;2023-08-30T09:43:18;4.65;;;4.35;;
37383;SDS011;23258;49.718;11.082;2023-08-30T09:45:48;3.95;;;3.65;;
37383;SDS011;23258;49.718;11.082;2023-08-30T09:48:23;4.63;;;4.22;;
37383;SDS011;23258;49.718;11.082;2023-08-30T09:50:57;3.50;;;3.20;;
37383;SDS011;23258;49.718;11.082;2023-08-30T09:53:27;4.63;;;4.25;;
37383;SDS011;23258;49.718;11.082;2023-08-30T09:55:59;4.97;;;4.50;;
37383;SDS011;23258;49.718;11.082;2023-08-30T09:58:29;4.38;;;3.97;;
37383;SDS011;23258;49.718;11.082;2023-08-30T10:00:59;3.55;;;3.33;;
37383;SDS011;23258;49.718;11.082;2023-08-30T10:03:32;6.85;;;4.22;;
37383;SDS011;23258;49.718;11.082;2023-08-30T10:06:04;4.50;;;3.80;;
37383;SDS011;23258;49.718;11.082;2023-08-30T10:08:34;3.58;;;3.30;;
37383;SDS011;23258;49.718;11.082;2023-08-30T10:11:06;4.82;;;3.40;;
37383;SDS011;23258;49.718;11.082;2023-08-30T10:13:36;4.28;;;3.83;;
37383;SDS011;23258;49.718;11.082;2023-08-30T10:16:08;3.10;;;2.85;;
37383;SDS011;23258;49.718;11.082;2023-08-30T10:18:44;2.67;;;2.47;;
37383;SDS011;23258;49.718;11.082;2023-08-30T10:21:30;3.35;;;3.15;;
37383;SDS011;23258;49.718;11.082;2023-08-30T10:24:00;3.15;;;2.85;;
37383;SDS011;23258;49.718;11.082;2023-08-30T10:26:51;3.85;;;3.65;;
37383;SDS011;23258;49.718;11.082;2023-08-30T10:29:21;3.60;;;3.30;;
37383;SDS011;23258;49.718;11.082;2023-08-30T10:31:53;4.10;;;3.80;;
37383;SDS011;23258;49.718;11.082;2023-08-30T10:34:31;4.13;;;3.83;;
37383;SDS011;23258;49.718;11.082;2023-08-30T10:37:01;4.15;;;3.83;;
37383;SDS011;23258;49.718;11.082;2023-08-30T10:39:33;4.18;;;3.88;;
37383;SDS011;23258;49.718;11.082;2023-08-30T10:42:09;3.97;;;3.63;;
37383;SDS011;23258;49.718;11.082;2023-08-30T10:44:49;4.43;;;4.03;;
37383;SDS011;23258;49.718;11.082;2023-08-30T10:47:38;3.78;;;3.47;;
37383;SDS011;23258;49.718;11.082;2023-08-30T10:50:11;4.07;;;3.78;;
37383;SDS011;23258;49.718;11.082;2023-08-30T10:52:41;4.00;;;3.70;;
37383;SDS011;23258;49.718;11.082;2023-08-30T10:55:11;3.60;;;3.30;;
37383;SDS011;23258;49.718;11.082;2023-08-30T10:57:42;4.03;;;3.58;;
37383;SDS011;23258;49.718;11.082;2023-08-30T11:00:17;4.07;;;3.78;;
37383;SDS011;23258;49.718;11.082;2023-08-30T11:02:48;4.38;;;3.97;;
37383;SDS011;23258;49.718;11.082;2023-08-30T11:05:24;3.97;;;3.67;;
37383;SDS011;23258;49.718;11.082;2023-08-30T11:07:55;5.43;;;4.20;;
37383;SDS011;23258;49.718;11.082;2023-08-30T11:10:24;5.50;;;3.67;;
37383;SDS011;23258;49.718;11.082;2023-08-30T11:12:55;3.88;;;3.53;;
37383;SDS011;23258;49.718;11.082;2023-08-30T11:15:25;4.00;;;3.70;;
37383;SDS011;23258;49.718;11.082;2023-08-30T11:18:02;4.50;;;3.83;;
37383;SDS011;23258;49.718;11.082;2023-08-30T11:20:34;3.50;;;3.20;;
37383;SDS011;23258;49.718;11.082;2023-08-30T11:23:04;3.47;;;3.17;;
37383;SDS011;23258;49.718;11.082;2023-08-30T11:25:34;3.38;;;3.08;;
37383;SDS011;23258;49.718;11.082;2023-08-30T11:28:04;4.07;;;3.60;;
37383;SDS011;23258;49.718;11.082;2023-08-30T11:30:39;4.40;;;3.45;;
37383;SDS011;23258;49.718;11.082;2023-08-30T11:33:09;3.67;;;3.38;;
37383;SDS011;23258;49.718;11.082;2023-08-30T11:35:42;6.90;;;3.70;;
37383;SDS011;23258;49.718;11.082;2023-08-30T11:38:12;4.20;;;3.88;;
37383;SDS011;23258;49.718;11.082;2023-08-30T11:40:42;5.82;;;4.13;;
37383;SDS011;23258;49.718;11.082;2023-08-30T11:43:12;4.80;;;4.40;;
37383;SDS011;23258;49.718;11.082;2023-08-30T11:45:42;4.30;;;4.00;;
37383;SDS011;23258;49.718;11.082;2023-08-30T11:48:12;4.35;;;3.92;;
37383;SDS011;23258;49.718;11.082;2023-08-30T11:50:44;4.30;;;3.90;;
37383;SDS011;23258;49.718;11.082;2023-08-30T11:53:14;4.00;;;3.67;;
37383;SDS011;23258;49.718;11.082;2023-08-30T11:55:44;4.03;;;3.72;;
37383;SDS011;23258;49.718;11.082;2023-08-30T11:58:14;4.45;;;4.05;;
37383;SDS011;23258;49.718;11.082;2023-08-30T12:00:44;4.88;;;3.95;;
37383;SDS011;23258;49.718;11.082;2023-08-30T12:03:14;3.97;;;3.67;;
37383;SDS011;23258;49.718;11.082;2023-08-30T12:05:47;4.32;;;3.92;;
37383;SDS011;23258;49.718;11.082;2023-08-30T12:08:17;4.07;;;3.75;;
37383;SDS011;23258;49.718;11.082;2023-08-30T12:10:48;4.60;;;4.25;;
37383;SDS011;23258;49.718;11.082;2023-08-30T12:13:21;7.18;;;4.03;;
37383;SDS011;23258;49.718;11.082;2023-08-30T12:15:51;3.08;;;2.88;;
37383;SDS011;23258;49.718;11.082;2023-08-30T12:18:21;4.45;;;4.05;;
37383;SDS011;23258;49.718;11.082;2023-08-30T12:21:00;4.70;;;3.78;;
37383;SDS011;23258;49.718;11.082;2023-08-30T12:23:30;3.80;;;3.50;;
37383;SDS011;23258;49.718;11.082;2023-08-30T12:26:01;3.88;;;3.55;;
37383;SDS011;23258;49.718;11.082;2023-08-30T12:28:34;3.75;;;3.50;;
37383;SDS011;23258;49.718;11.082;2023-08-30T12:31:04;4.57;;;3.60;;
37383;SDS011;23258;49.718;11.082;2023-08-30T12:33:34;5.13;;;4.25;;
37383;SDS011;23258;49.718;11.082;2023-08-30T12:36:06;4.15;;;3.75;;
37383;SDS011;23258;49.718;11.082;2023-08-30T12:38:36;3.75;;;3.45;;
37383;SDS011;23258;49.718;11.082;2023-08-30T12:41:06;4.07;;;3.67;;
37383;SDS011;23258;49.718;11.082;2023-08-30T12:43:36;3.92;;;3.42;;
37383;SDS011;23258;49.718;11.082;2023-08-30T12:46:05;4.45;;;3.53;;
37383;SDS011;23258;49.718;11.082;2023-08-30T12:48:35;4.55;;;3.83;;
37383;SDS011;23258;49.718;11.082;2023-08-30T12:51:07;4.55;;;3.35;;
37383;SDS011;23258;49.718;11.082;2023-08-30T12:53:37;4.20;;;3.80;;
37383;SDS011;23258;49.718;11.082;2023-08-30T12:56:07;3.40;;;3.10;;
37383;SDS011;23258;49.718;11.082;2023-08-30T12:58:36;3.55;;;2.80;;
37383;SDS011;23258;49.718;11.082;2023-08-30T13:01:06;4.10;;;3.60;;
37383;SDS011;23258;49.718;11.082;2023-08-30T13:03:36;3.25;;;3.03;;
37383;SDS011;23258;49.718;11.082;2023-08-30T13:06:09;3.83;;;3.53;;
37383;SDS011;23258;49.718;11.082;2023-08-30T13:08:39;3.60;;;3.30;;
37383;SDS011;23258;49.718;11.082;2023-08-30T13:11:08;3.53;;;3.28;;
37383;SDS011;23258;49.718;11.082;2023-08-30T13:13:38;3.85;;;3.45;;
37383;SDS011;23258;49.718;11.082;2023-08-30T13:16:07;3.70;;;3.40;;
37383;SDS011;23258;49.718;11.082;2023-08-30T13:18:37;3.42;;;3.13;;
37383;SDS011;23258;49.718;11.082;2023-08-30T13:21:10;3.20;;;2.90;;
37383;SDS011;23258;49.718;11.082;2023-08-30T13:23:41;3.65;;;3.42;;
37383;SDS011;23258;49.718;11.082;2023-08-30T13:26:10;3.83;;;3.53;;
37383;SDS011;23258;49.718;11.082;2023-08-30T13:28:40;5.38;;;3.78;;
37383;SDS011;23258;49.718;11.082;2023-08-30T13:31:10;3.38;;;3.13;;
37383;SDS011;23258;49.718;11.082;2023-08-30T13:33:40;4.13;;;3.83;;
37383;SDS011;23258;49.718;11.082;2023-08-30T13:36:12;3.40;;;3.20;;
37383;SDS011;23258;49.718;11.082;2023-08-30T13:38:42;3.33;;;3.03;;
37383;SDS011;23258;49.718;11.082;2023-08-30T13:41:11;3.75;;;3.17;;
37383;SDS011;23258;49.718;11.082;2023-08-30T13:43:41;2.97;;;2.78;;
37383;SDS011;23258;49.718;11.082;2023-08-30T13:46:11;2.92;;;2.72;;
37383;SDS011;23258;49.718;11.082;2023-08-30T13:48:41;3.05;;;2.85;;
37383;SDS011;23258;49.718;11.082;2023-08-30T13:51:13;3.25;;;2.92;;
37383;SDS011;23258;49.718;11.082;2023-08-30T13:53:43;3.33;;;2.55;;
37383;SDS011;23258;49.718;11.082;2023-08-30T13:56:14;3.33;;;3.13;;
37383;SDS011;23258;49.718;11.082;2023-08-30T13:58:44;2.85;;;2.65;;
37383;SDS011;23258;49.718;11.082;2023-08-30T14:01:13;2.88;;;2.55;;
37383;SDS011;23258;49.718;11.082;2023-08-30T14:03:43;3.22;;;2.92;;
37383;SDS011;23258;49.718;11.082;2023-08-30T14:06:15;3.28;;;3.00;;
37383;SDS011;23258;49.718;11.082;2023-08-30T14:08:45;2.92;;;2.63;;
37383;SDS011;23258;49.718;11.082;2023-08-30T14:11:15;3.00;;;2.80;;
37383;SDS011;23258;49.718;11.082;2023-08-30T14:13:45;4.38;;;3.63;;
37383;SDS011;23258;49.718;11.082;2023-08-30T14:16:14;2.72;;;2.40;;
37383;SDS011;23258;49.718;11.082;2023-08-30T14:18:45;2.80;;;2.60;;
37383;SDS011;23258;49.718;11.082;2023-08-30T14:21:17;3.22;;;2.92;;
37383;SDS011;23258;49.718;11.082;2023-08-30T14:23:47;4.20;;;2.95;;
37383;SDS011;23258;49.718;11.082;2023-08-30T14:26:16;3.45;;;3.15;;
37383;SDS011;23258;49.718;11.082;2023-08-30T14:28:46;3.63;;;3.30;;
37383;SDS011;23258;49.718;11.082;2023-08-30T14:31:16;3.35;;;3.10;;
37383;SDS011;23258;49.718;11.082;2023-08-30T14:33:46;3.05;;;2.85;;
37383;SDS011;23258;49.718;11.082;2023-08-30T14:36:18;2.90;;;2.70;;
37383;SDS011;23258;49.718;11.082;2023-08-30T14:38:48;3.45;;;3.15;;
37383;SDS011;23258;49.718;11.082;2023-08-30T14:41:18;3.28;;;3.05;;
37383;SDS011;23258;49.718;11.082;2023-08-30T14:43:47;4.07;;;3.75;;
37383;SDS011;23258;49.718;11.082;2023-08-30T14:46:17;3.53;;;3.22;;
37383;SDS011;23258;49.718;11.082;2023-08-30T14:48:50;3.63;;;3.30;;
37383;SDS011;23258;49.718;11.082;2023-08-30T14:51:22;3.35;;;3.08;;
37383;SDS011;23258;49.718;11.082;2023-08-30T14:53:52;3.88;;;3.50;;
37383;SDS011;23258;49.718;11.082;2023-08-30T14:56:21;3.40;;;2.85;;
37383;SDS011;23258;49.718;11.082;2023-08-30T14:58:51;3.20;;;2.90;;